Accueil
METAR-TAF:

METAR-TAF

Aéroports :

Plate-forme pétrolière

Troll C, Norvège

latitude: 60-53-09N, longitude: 3-36-35E, altitude: 20 m

Observation

Le bulletin a été fait il y a 25 minutes, à 00:20 UTC
Vent 24 kt de sud
Température 8°C
Humidité 87%
Pression 1001 hPa
Visibilité 10 km ou plus

METAR: ENQC 260020Z AUTO 19024KT 9999NDV BKN012/// 08/06 Q1001 W///S5

Heure: 01:45 (00:45 UTC)


TAF: absent

Observations et prévisions météorologiques de plus de 4000 aéroports (messages METAR et TAF).

Les stations disponibles sont représentées par des disques jaunes et rouges sur la carte.

Passer la souris dessus pour voir le nom de la station.

Cliquer dessus pour voir les observations et prévisions météorologiques.

Pour changer de carte: cliquez sur les boutons verts avec une croix noire pour zoomer, sur le bouton vert avec un tiret pour effectuer un zoom arrière, ou sur les flèches vertes pour les cartes adjacentes.


METAR-TAF: